sensor_id;sensor_type;location;lat;lon;timestamp;temperature;humidity
78886;DHT22;68269;52.514;5.722;2023-07-29T00:01:10;19.60;70.10
78886;DHT22;68269;52.514;5.722;2023-07-29T00:03:40;19.60;70.10
78886;DHT22;68269;52.514;5.722;2023-07-29T00:06:10;19.50;70.10
78886;DHT22;68269;52.514;5.722;2023-07-29T00:08:42;19.50;70.10
78886;DHT22;68269;52.514;5.722;2023-07-29T00:11:11;19.50;70.20
78886;DHT22;68269;52.514;5.722;2023-07-29T00:13:40;19.50;70.20
78886;DHT22;68269;52.514;5.722;2023-07-29T00:16:10;19.50;70.20
78886;DHT22;68269;52.514;5.722;2023-07-29T00:18:41;19.50;70.30
78886;DHT22;68269;52.514;5.722;2023-07-29T00:21:11;19.50;70.20
78886;DHT22;68269;52.514;5.722;2023-07-29T00:23:43;19.50;70.20
78886;DHT22;68269;52.514;5.722;2023-07-29T00:26:12;19.50;70.10
78886;DHT22;68269;52.514;5.722;2023-07-29T00:28:41;19.50;70.10
78886;DHT22;68269;52.514;5.722;2023-07-29T00:31:11;19.50;70.10
78886;DHT22;68269;52.514;5.722;2023-07-29T00:33:40;19.50;70.10
78886;DHT22;68269;52.514;5.722;2023-07-29T00:36:09;19.50;70.10
78886;DHT22;68269;52.514;5.722;2023-07-29T00:38:38;19.50;70.10
78886;DHT22;68269;52.514;5.722;2023-07-29T00:41:11;19.50;70.10
78886;DHT22;68269;52.514;5.722;2023-07-29T00:43:42;19.40;70.20
78886;DHT22;68269;52.514;5.722;2023-07-29T00:46:12;19.40;70.20
78886;DHT22;68269;52.514;5.722;2023-07-29T00:48:41;19.40;70.10
78886;DHT22;68269;52.514;5.722;2023-07-29T00:51:11;19.30;70.20
78886;DHT22;68269;52.514;5.722;2023-07-29T00:53:40;19.30;70.10
78886;DHT22;68269;52.514;5.722;2023-07-29T00:56:12;19.30;70.10
78886;DHT22;68269;52.514;5.722;2023-07-29T00:58:43;19.30;70.10
78886;DHT22;68269;52.514;5.722;2023-07-29T01:01:13;19.30;70.10
78886;DHT22;68269;52.514;5.722;2023-07-29T01:03:42;19.30;70.10
78886;DHT22;68269;52.514;5.722;2023-07-29T01:06:16;19.20;70.00
78886;DHT22;68269;52.514;5.722;2023-07-29T01:09:00;19.20;70.10
78886;DHT22;68269;52.514;5.722;2023-07-29T01:11:41;19.20;70.10
78886;DHT22;68269;52.514;5.722;2023-07-29T01:14:21;19.20;70.00
78886;DHT22;68269;52.514;5.722;2023-07-29T01:16:54;19.20;69.90
78886;DHT22;68269;52.514;5.722;2023-07-29T01:19:42;19.10;69.90
78886;DHT22;68269;52.514;5.722;2023-07-29T01:22:13;19.10;70.00
78886;DHT22;68269;52.514;5.722;2023-07-29T01:24:45;19.10;69.90
78886;DHT22;68269;52.514;5.722;2023-07-29T01:27:14;19.10;69.90
78886;DHT22;68269;52.514;5.722;2023-07-29T01:29:44;19.10;69.90
78886;DHT22;68269;52.514;5.722;2023-07-29T01:32:17;19.10;69.90
78886;DHT22;68269;52.514;5.722;2023-07-29T01:34:51;19.10;69.90
78886;DHT22;68269;52.514;5.722;2023-07-29T01:37:25;19.10;69.90
78886;DHT22;68269;52.514;5.722;2023-07-29T01:39:59;19.00;69.90
78886;DHT22;68269;52.514;5.722;2023-07-29T01:42:30;19.10;69.80
78886;DHT22;68269;52.514;5.722;2023-07-29T01:45:00;19.10;69.80
78886;DHT22;68269;52.514;5.722;2023-07-29T01:47:30;19.10;69.70
78886;DHT22;68269;52.514;5.722;2023-07-29T01:49:59;19.10;69.70
78886;DHT22;68269;52.514;5.722;2023-07-29T01:52:29;19.10;69.60
78886;DHT22;68269;52.514;5.722;2023-07-29T01:55:01;19.10;69.60
78886;DHT22;68269;52.514;5.722;2023-07-29T01:57:31;19.10;69.60
78886;DHT22;68269;52.514;5.722;2023-07-29T02:00:01;19.10;69.60
78886;DHT22;68269;52.514;5.722;2023-07-29T02:02:40;19.10;69.60
78886;DHT22;68269;52.514;5.722;2023-07-29T02:05:10;19.10;69.60
78886;DHT22;68269;52.514;5.722;2023-07-29T02:07:39;19.00;69.60
78886;DHT22;68269;52.514;5.722;2023-07-29T02:10:11;19.00;69.60
78886;DHT22;68269;52.514;5.722;2023-07-29T02:12:41;19.00;69.70
78886;DHT22;68269;52.514;5.722;2023-07-29T02:15:10;19.00;69.60
78886;DHT22;68269;52.514;5.722;2023-07-29T02:17:41;19.00;69.60
78886;DHT22;68269;52.514;5.722;2023-07-29T02:20:11;19.00;69.60
78886;DHT22;68269;52.514;5.722;2023-07-29T02:22:40;19.00;69.60
78886;DHT22;68269;52.514;5.722;2023-07-29T02:25:12;19.00;69.50
78886;DHT22;68269;52.514;5.722;2023-07-29T02:27:41;19.00;69.50
78886;DHT22;68269;52.514;5.722;2023-07-29T02:30:11;19.00;69.40
78886;DHT22;68269;52.514;5.722;2023-07-29T02:32:40;19.00;69.40
78886;DHT22;68269;52.514;5.722;2023-07-29T02:35:10;19.00;69.40
78886;DHT22;68269;52.514;5.722;2023-07-29T02:37:39;19.00;69.40
78886;DHT22;68269;52.514;5.722;2023-07-29T02:40:12;19.00;69.40
78886;DHT22;68269;52.514;5.722;2023-07-29T02:42:41;19.00;69.40
78886;DHT22;68269;52.514;5.722;2023-07-29T02:45:11;18.90;69.40
78886;DHT22;68269;52.514;5.722;2023-07-29T02:47:40;18.90;69.40
78886;DHT22;68269;52.514;5.722;2023-07-29T02:50:10;18.90;69.40
78886;DHT22;68269;52.514;5.722;2023-07-29T02:52:39;18.90;69.40
78886;DHT22;68269;52.514;5.722;2023-07-29T02:55:08;18.90;69.40
78886;DHT22;68269;52.514;5.722;2023-07-29T02:57:40;18.90;69.30
78886;DHT22;68269;52.514;5.722;2023-07-29T03:00:11;18.90;69.30
78886;DHT22;68269;52.514;5.722;2023-07-29T03:02:41;18.90;69.30
78886;DHT22;68269;52.514;5.722;2023-07-29T03:05:10;18.80;69.30
78886;DHT22;68269;52.514;5.722;2023-07-29T03:07:40;18.90;69.30
78886;DHT22;68269;52.514;5.722;2023-07-29T03:10:10;18.90;69.30
78886;DHT22;68269;52.514;5.722;2023-07-29T03:12:43;18.90;69.30
78886;DHT22;68269;52.514;5.722;2023-07-29T03:15:13;18.90;69.30
78886;DHT22;68269;52.514;5.722;2023-07-29T03:17:42;18.90;69.30
78886;DHT22;68269;52.514;5.722;2023-07-29T03:20:11;18.90;69.30
78886;DHT22;68269;52.514;5.722;2023-07-29T03:22:40;18.90;69.30
78886;DHT22;68269;52.514;5.722;2023-07-29T03:25:10;18.80;69.40
78886;DHT22;68269;52.514;5.722;2023-07-29T03:27:42;18.80;69.50
78886;DHT22;68269;52.514;5.722;2023-07-29T03:30:11;18.70;69.50
78886;DHT22;68269;52.514;5.722;2023-07-29T03:32:44;18.70;69.60
78886;DHT22;68269;52.514;5.722;2023-07-29T03:35:17;18.60;69.70
78886;DHT22;68269;52.514;5.722;2023-07-29T03:37:46;18.60;69.70
78886;DHT22;68269;52.514;5.722;2023-07-29T03:40:16;18.60;69.80
78886;DHT22;68269;52.514;5.722;2023-07-29T03:42:48;18.50;69.80
78886;DHT22;68269;52.514;5.722;2023-07-29T03:45:17;18.50;69.90
78886;DHT22;68269;52.514;5.722;2023-07-29T03:47:46;18.50;69.90
78886;DHT22;68269;52.514;5.722;2023-07-29T03:50:15;18.50;69.90
78886;DHT22;68269;52.514;5.722;2023-07-29T03:52:45;18.50;70.00
78886;DHT22;68269;52.514;5.722;2023-07-29T03:55:14;18.40;70.00
78886;DHT22;68269;52.514;5.722;2023-07-29T03:57:43;18.40;70.10
78886;DHT22;68269;52.514;5.722;2023-07-29T04:00:15;18.40;70.10
78886;DHT22;68269;52.514;5.722;2023-07-29T04:02:48;18.40;70.10
78886;DHT22;68269;52.514;5.722;2023-07-29T04:05:18;18.40;70.10
78886;DHT22;68269;52.514;5.722;2023-07-29T04:07:48;18.40;70.10
78886;DHT22;68269;52.514;5.722;2023-07-29T04:10:17;18.40;70.20
78886;DHT22;68269;52.514;5.722;2023-07-29T04:12:47;18.40;70.20
78886;DHT22;68269;52.514;5.722;2023-07-29T04:15:19;18.40;70.20
78886;DHT22;68269;52.514;5.722;2023-07-29T04:17:48;18.40;70.30
78886;DHT22;68269;52.514;5.722;2023-07-29T04:20:17;18.40;70.30
78886;DHT22;68269;52.514;5.722;2023-07-29T04:22:47;18.40;70.30
78886;DHT22;68269;52.514;5.722;2023-07-29T04:25:16;18.40;70.30
78886;DHT22;68269;52.514;5.722;2023-07-29T04:27:45;18.40;70.40
78886;DHT22;68269;52.514;5.722;2023-07-29T04:30:17;18.40;70.40
78886;DHT22;68269;52.514;5.722;2023-07-29T04:32:47;18.40;70.40
78886;DHT22;68269;52.514;5.722;2023-07-29T04:35:17;18.40;70.40
78886;DHT22;68269;52.514;5.722;2023-07-29T04:37:46;18.40;70.50
78886;DHT22;68269;52.514;5.722;2023-07-29T04:40:16;18.40;70.50
78886;DHT22;68269;52.514;5.722;2023-07-29T04:42:45;18.40;70.50
78886;DHT22;68269;52.514;5.722;2023-07-29T04:45:17;18.40;70.50
78886;DHT22;68269;52.514;5.722;2023-07-29T04:47:47;18.40;70.50
78886;DHT22;68269;52.514;5.722;2023-07-29T04:50:16;18.40;70.50
78886;DHT22;68269;52.514;5.722;2023-07-29T04:52:46;18.40;70.50
78886;DHT22;68269;52.514;5.722;2023-07-29T04:55:15;18.40;70.50
78886;DHT22;68269;52.514;5.722;2023-07-29T04:57:44;18.40;70.50
78886;DHT22;68269;52.514;5.722;2023-07-29T05:00:14;18.40;70.50
78886;DHT22;68269;52.514;5.722;2023-07-29T05:02:46;18.40;70.60
78886;DHT22;68269;52.514;5.722;2023-07-29T05:05:15;18.40;70.60
78886;DHT22;68269;52.514;5.722;2023-07-29T05:07:45;18.40;70.60
78886;DHT22;68269;52.514;5.722;2023-07-29T05:10:14;18.40;70.60
78886;DHT22;68269;52.514;5.722;2023-07-29T05:12:44;18.40;70.60
78886;DHT22;68269;52.514;5.722;2023-07-29T05:15:13;18.40;70.60
78886;DHT22;68269;52.514;5.722;2023-07-29T05:17:47;18.40;70.60
78886;DHT22;68269;52.514;5.722;2023-07-29T05:20:17;18.40;70.70
78886;DHT22;68269;52.514;5.722;2023-07-29T05:22:46;18.30;70.70
78886;DHT22;68269;52.514;5.722;2023-07-29T05:25:15;18.40;70.70
78886;DHT22;68269;52.514;5.722;2023-07-29T05:27:45;18.40;70.70
78886;DHT22;68269;52.514;5.722;2023-07-29T05:30:14;18.40;70.70
78886;DHT22;68269;52.514;5.722;2023-07-29T05:32:43;18.30;70.70
78886;DHT22;68269;52.514;5.722;2023-07-29T05:35:16;18.30;70.70
78886;DHT22;68269;52.514;5.722;2023-07-29T05:37:46;18.30;70.80
78886;DHT22;68269;52.514;5.722;2023-07-29T05:40:15;18.30;70.70
78886;DHT22;68269;52.514;5.722;2023-07-29T05:42:45;18.30;70.70
78886;DHT22;68269;52.514;5.722;2023-07-29T05:45:14;18.30;70.70
78886;DHT22;68269;52.514;5.722;2023-07-29T05:47:43;18.40;70.70
78886;DHT22;68269;52.514;5.722;2023-07-29T05:50:15;18.40;70.70
78886;DHT22;68269;52.514;5.722;2023-07-29T05:52:45;18.40;70.60
78886;DHT22;68269;52.514;5.722;2023-07-29T05:55:14;18.50;70.60
78886;DHT22;68269;52.514;5.722;2023-07-29T05:57:43;18.50;70.50
78886;DHT22;68269;52.514;5.722;2023-07-29T06:00:13;18.50;70.50
78886;DHT22;68269;52.514;5.722;2023-07-29T06:02:42;18.60;70.50
78886;DHT22;68269;52.514;5.722;2023-07-29T06:05:18;18.60;70.50
78886;DHT22;68269;52.514;5.722;2023-07-29T06:07:48;18.70;70.50
78886;DHT22;68269;52.514;5.722;2023-07-29T06:10:17;18.70;70.40
78886;DHT22;68269;52.514;5.722;2023-07-29T06:12:46;18.70;70.40
78886;DHT22;68269;52.514;5.722;2023-07-29T06:15:16;18.80;70.40
78886;DHT22;68269;52.514;5.722;2023-07-29T06:17:48;18.80;70.40
78886;DHT22;68269;52.514;5.722;2023-07-29T06:20:20;18.80;70.50
78886;DHT22;68269;52.514;5.722;2023-07-29T06:22:49;18.80;70.50
78886;DHT22;68269;52.514;5.722;2023-07-29T06:25:19;18.70;70.50
78886;DHT22;68269;52.514;5.722;2023-07-29T06:27:48;18.80;70.40
78886;DHT22;68269;52.514;5.722;2023-07-29T06:30:18;18.80;70.50
78886;DHT22;68269;52.514;5.722;2023-07-29T06:32:47;18.80;70.50
78886;DHT22;68269;52.514;5.722;2023-07-29T06:35:16;18.80;70.50
78886;DHT22;68269;52.514;5.722;2023-07-29T06:37:48;18.90;70.40
78886;DHT22;68269;52.514;5.722;2023-07-29T06:40:18;18.90;70.40
78886;DHT22;68269;52.514;5.722;2023-07-29T06:42:47;18.90;70.40
78886;DHT22;68269;52.514;5.722;2023-07-29T06:45:17;19.00;70.40
78886;DHT22;68269;52.514;5.722;2023-07-29T06:47:46;19.00;70.40
78886;DHT22;68269;52.514;5.722;2023-07-29T06:50:15;19.00;70.40
78886;DHT22;68269;52.514;5.722;2023-07-29T06:52:47;19.00;70.30
78886;DHT22;68269;52.514;5.722;2023-07-29T06:55:17;19.10;70.30
78886;DHT22;68269;52.514;5.722;2023-07-29T06:57:46;19.10;70.30
78886;DHT22;68269;52.514;5.722;2023-07-29T07:00:15;19.20;70.20
78886;DHT22;68269;52.514;5.722;2023-07-29T07:02:44;19.20;70.10
78886;DHT22;68269;52.514;5.722;2023-07-29T07:05:14;19.30;70.10
78886;DHT22;68269;52.514;5.722;2023-07-29T07:07:43;19.30;70.10
78886;DHT22;68269;52.514;5.722;2023-07-29T07:10:15;19.40;70.00
78886;DHT22;68269;52.514;5.722;2023-07-29T07:12:45;19.40;70.00
78886;DHT22;68269;52.514;5.722;2023-07-29T07:15:14;19.50;70.00
78886;DHT22;68269;52.514;5.722;2023-07-29T07:17:43;19.50;70.00
78886;DHT22;68269;52.514;5.722;2023-07-29T07:20:13;19.50;70.00
78886;DHT22;68269;52.514;5.722;2023-07-29T07:22:42;19.50;70.00
78886;DHT22;68269;52.514;5.722;2023-07-29T07:25:12;19.60;69.90
78886;DHT22;68269;52.514;5.722;2023-07-29T07:27:43;19.70;69.90
78886;DHT22;68269;52.514;5.722;2023-07-29T07:30:13;19.70;69.90
78886;DHT22;68269;52.514;5.722;2023-07-29T07:32:42;19.80;69.80
78886;DHT22;68269;52.514;5.722;2023-07-29T07:35:11;19.90;69.80
78886;DHT22;68269;52.514;5.722;2023-07-29T07:37:41;20.00;69.70
78886;DHT22;68269;52.514;5.722;2023-07-29T07:40:11;20.00;69.70
78886;DHT22;68269;52.514;5.722;2023-07-29T07:42:43;20.10;69.60
78886;DHT22;68269;52.514;5.722;2023-07-29T07:45:12;20.10;69.70
78886;DHT22;68269;52.514;5.722;2023-07-29T07:47:41;20.10;69.60
78886;DHT22;68269;52.514;5.722;2023-07-29T07:50:10;20.10;69.70
78886;DHT22;68269;52.514;5.722;2023-07-29T07:52:40;20.10;69.70
78886;DHT22;68269;52.514;5.722;2023-07-29T07:55:09;20.00;69.80
78886;DHT22;68269;52.514;5.722;2023-07-29T07:57:39;20.00;69.80
78886;DHT22;68269;52.514;5.722;2023-07-29T08:00:12;20.00;69.80
78886;DHT22;68269;52.514;5.722;2023-07-29T08:02:44;20.10;69.80
78886;DHT22;68269;52.514;5.722;2023-07-29T08:05:13;20.10;69.80
78886;DHT22;68269;52.514;5.722;2023-07-29T08:07:42;20.10;69.70
78886;DHT22;68269;52.514;5.722;2023-07-29T08:10:12;20.10;69.70
78886;DHT22;68269;52.514;5.722;2023-07-29T08:12:41;20.10;69.80
78886;DHT22;68269;52.514;5.722;2023-07-29T08:15:13;20.10;69.80
78886;DHT22;68269;52.514;5.722;2023-07-29T08:17:42;20.20;69.80
78886;DHT22;68269;52.514;5.722;2023-07-29T08:20:11;20.30;69.70
78886;DHT22;68269;52.514;5.722;2023-07-29T08:22:41;20.30;69.70
78886;DHT22;68269;52.514;5.722;2023-07-29T08:25:10;20.30;69.70
78886;DHT22;68269;52.514;5.722;2023-07-29T08:27:39;20.30;69.60
78886;DHT22;68269;52.514;5.722;2023-07-29T08:30:12;20.30;69.60
78886;DHT22;68269;52.514;5.722;2023-07-29T08:32:42;20.30;69.50
78886;DHT22;68269;52.514;5.722;2023-07-29T08:35:11;20.40;69.50
78886;DHT22;68269;52.514;5.722;2023-07-29T08:37:41;20.40;69.50
78886;DHT22;68269;52.514;5.722;2023-07-29T08:40:11;20.40;69.40
78886;DHT22;68269;52.514;5.722;2023-07-29T08:42:42;20.50;69.30
78886;DHT22;68269;52.514;5.722;2023-07-29T08:45:17;20.50;69.20
78886;DHT22;68269;52.514;5.722;2023-07-29T08:47:46;20.50;69.30
78886;DHT22;68269;52.514;5.722;2023-07-29T08:50:17;20.60;69.20
78886;DHT22;68269;52.514;5.722;2023-07-29T08:52:48;20.60;69.20
78886;DHT22;68269;52.514;5.722;2023-07-29T08:55:19;20.60;69.10
78886;DHT22;68269;52.514;5.722;2023-07-29T08:57:48;20.70;69.00
78886;DHT22;68269;52.514;5.722;2023-07-29T09:00:20;20.70;69.00
78886;DHT22;68269;52.514;5.722;2023-07-29T09:02:50;20.70;69.00
78886;DHT22;68269;52.514;5.722;2023-07-29T09:05:20;20.80;69.00
78886;DHT22;68269;52.514;5.722;2023-07-29T09:07:51;20.80;69.00
78886;DHT22;68269;52.514;5.722;2023-07-29T09:10:22;20.80;69.00
78886;DHT22;68269;52.514;5.722;2023-07-29T09:12:52;20.80;69.00
78886;DHT22;68269;52.514;5.722;2023-07-29T09:15:32;20.80;69.00
78886;DHT22;68269;52.514;5.722;2023-07-29T09:18:09;20.80;69.00
78886;DHT22;68269;52.514;5.722;2023-07-29T09:20:39;20.80;69.00
78886;DHT22;68269;52.514;5.722;2023-07-29T09:23:09;20.80;69.00
78886;DHT22;68269;52.514;5.722;2023-07-29T09:25:39;21.00;68.80
78886;DHT22;68269;52.514;5.722;2023-07-29T09:28:10;21.10;68.60
78886;DHT22;68269;52.514;5.722;2023-07-29T09:30:44;21.20;68.50
78886;DHT22;68269;52.514;5.722;2023-07-29T09:33:14;21.10;68.50
78886;DHT22;68269;52.514;5.722;2023-07-29T09:35:44;21.10;68.60
78886;DHT22;68269;52.514;5.722;2023-07-29T09:38:14;20.90;68.90
78886;DHT22;68269;52.514;5.722;2023-07-29T09:40:44;20.80;69.10
78886;DHT22;68269;52.514;5.722;2023-07-29T09:43:17;20.70;69.30
78886;DHT22;68269;52.514;5.722;2023-07-29T09:45:52;20.70;69.30
78886;DHT22;68269;52.514;5.722;2023-07-29T09:48:23;20.70;69.30
78886;DHT22;68269;52.514;5.722;2023-07-29T09:50:52;20.80;69.20
78886;DHT22;68269;52.514;5.722;2023-07-29T09:53:21;20.80;69.10
78886;DHT22;68269;52.514;5.722;2023-07-29T09:55:53;20.90;68.90
78886;DHT22;68269;52.514;5.722;2023-07-29T09:58:27;21.10;68.60
78886;DHT22;68269;52.514;5.722;2023-07-29T10:00:59;21.20;68.40
78886;DHT22;68269;52.514;5.722;2023-07-29T10:03:29;21.20;68.20
78886;DHT22;68269;52.514;5.722;2023-07-29T10:06:00;21.20;68.20
78886;DHT22;68269;52.514;5.722;2023-07-29T10:08:30;21.20;68.20
78886;DHT22;68269;52.514;5.722;2023-07-29T10:11:02;21.10;68.20
78886;DHT22;68269;52.514;5.722;2023-07-29T10:13:31;21.10;68.20
78886;DHT22;68269;52.514;5.722;2023-07-29T10:16:04;21.10;68.20
78886;DHT22;68269;52.514;5.722;2023-07-29T10:18:34;21.00;68.20
78886;DHT22;68269;52.514;5.722;2023-07-29T10:21:04;21.00;68.20
78886;DHT22;68269;52.514;5.722;2023-07-29T10:23:38;20.90;68.20
78886;DHT22;68269;52.514;5.722;2023-07-29T10:26:10;20.90;68.10
78886;DHT22;68269;52.514;5.722;2023-07-29T10:28:46;20.80;68.10
78886;DHT22;68269;52.514;5.722;2023-07-29T10:31:19;20.80;68.00
78886;DHT22;68269;52.514;5.722;2023-07-29T10:33:50;20.90;67.90
78886;DHT22;68269;52.514;5.722;2023-07-29T10:47:52;21.70;66.80
78886;DHT22;68269;52.514;5.722;2023-07-29T10:50:22;21.90;66.80
78886;DHT22;68269;52.514;5.722;2023-07-29T10:52:56;21.90;66.60
78886;DHT22;68269;52.514;5.722;2023-07-29T10:55:27;22.00;66.50
78886;DHT22;68269;52.514;5.722;2023-07-29T10:58:08;22.20;66.50
78886;DHT22;68269;52.514;5.722;2023-07-29T11:00:38;22.30;66.30
78886;DHT22;68269;52.514;5.722;2023-07-29T11:03:12;22.30;66.20
78886;DHT22;68269;52.514;5.722;2023-07-29T11:05:43;22.50;66.10
78886;DHT22;68269;52.514;5.722;2023-07-29T11:08:21;22.50;66.10
78886;DHT22;68269;52.514;5.722;2023-07-29T11:11:05;22.40;66.20
78886;DHT22;68269;52.514;5.722;2023-07-29T11:13:36;22.20;66.40
78886;DHT22;68269;52.514;5.722;2023-07-29T11:16:06;22.20;66.50
78886;DHT22;68269;52.514;5.722;2023-07-29T11:18:38;22.20;66.40
78886;DHT22;68269;52.514;5.722;2023-07-29T11:21:08;22.30;66.30
78886;DHT22;68269;52.514;5.722;2023-07-29T11:23:37;22.30;66.20
78886;DHT22;68269;52.514;5.722;2023-07-29T11:26:07;22.30;66.20
78886;DHT22;68269;52.514;5.722;2023-07-29T11:28:38;22.50;66.00
78886;DHT22;68269;52.514;5.722;2023-07-29T11:31:08;22.50;65.80
78886;DHT22;68269;52.514;5.722;2023-07-29T11:33:40;22.60;65.80
78886;DHT22;68269;52.514;5.722;2023-07-29T11:36:17;22.60;65.60
78886;DHT22;68269;52.514;5.722;2023-07-29T11:38:47;22.50;65.60
78886;DHT22;68269;52.514;5.722;2023-07-29T11:41:19;22.50;65.70
78886;DHT22;68269;52.514;5.722;2023-07-29T11:43:49;22.40;65.80
78886;DHT22;68269;52.514;5.722;2023-07-29T11:46:22;22.40;65.70
78886;DHT22;68269;52.514;5.722;2023-07-29T11:48:54;22.30;65.70
78886;DHT22;68269;52.514;5.722;2023-07-29T11:51:23;22.20;65.70
78886;DHT22;68269;52.514;5.722;2023-07-29T11:53:54;22.10;65.90
78886;DHT22;68269;52.514;5.722;2023-07-29T11:56:24;22.00;66.20
78886;DHT22;68269;52.514;5.722;2023-07-29T11:58:54;21.90;66.20
78886;DHT22;68269;52.514;5.722;2023-07-29T12:01:24;21.90;66.30
78886;DHT22;68269;52.514;5.722;2023-07-29T12:03:56;21.90;66.40
78886;DHT22;68269;52.514;5.722;2023-07-29T12:06:26;21.90;66.50
78886;DHT22;68269;52.514;5.722;2023-07-29T12:08:57;22.10;66.30
78886;DHT22;68269;52.514;5.722;2023-07-29T12:11:27;22.30;66.10
78886;DHT22;68269;52.514;5.722;2023-07-29T12:13:56;22.40;65.90
78886;DHT22;68269;52.514;5.722;2023-07-29T12:16:25;22.50;65.90
78886;DHT22;68269;52.514;5.722;2023-07-29T12:19:04;22.50;65.80
78886;DHT22;68269;52.514;5.722;2023-07-29T12:21:33;22.60;65.50
78886;DHT22;68269;52.514;5.722;2023-07-29T12:24:04;22.80;65.20
78886;DHT22;68269;52.514;5.722;2023-07-29T12:26:36;22.90;65.00
78886;DHT22;68269;52.514;5.722;2023-07-29T12:29:11;22.90;64.90
78886;DHT22;68269;52.514;5.722;2023-07-29T12:31:41;22.80;64.90
78886;DHT22;68269;52.514;5.722;2023-07-29T12:34:17;22.60;65.10
78886;DHT22;68269;52.514;5.722;2023-07-29T12:36:48;22.50;65.30
78886;DHT22;68269;52.514;5.722;2023-07-29T12:39:19;22.30;65.40
78886;DHT22;68269;52.514;5.722;2023-07-29T12:41:50;22.20;65.60
78886;DHT22;68269;52.514;5.722;2023-07-29T12:44:20;22.00;65.80
78886;DHT22;68269;52.514;5.722;2023-07-29T12:46:49;21.90;66.00
78886;DHT22;68269;52.514;5.722;2023-07-29T12:49:21;21.80;66.20
78886;DHT22;68269;52.514;5.722;2023-07-29T12:51:51;21.70;66.50
78886;DHT22;68269;52.514;5.722;2023-07-29T12:54:20;21.70;66.70
78886;DHT22;68269;52.514;5.722;2023-07-29T12:56:50;21.80;66.60
78886;DHT22;68269;52.514;5.722;2023-07-29T12:59:19;22.00;66.40
78886;DHT22;68269;52.514;5.722;2023-07-29T13:01:48;22.10;66.30
78886;DHT22;68269;52.514;5.722;2023-07-29T13:04:18;22.10;66.40
78886;DHT22;68269;52.514;5.722;2023-07-29T13:06:50;22.10;66.40
78886;DHT22;68269;52.514;5.722;2023-07-29T13:09:19;22.00;66.60
78886;DHT22;68269;52.514;5.722;2023-07-29T13:11:48;21.90;66.70
78886;DHT22;68269;52.514;5.722;2023-07-29T13:14:17;21.90;66.80
78886;DHT22;68269;52.514;5.722;2023-07-29T13:16:47;22.00;66.70
78886;DHT22;68269;52.514;5.722;2023-07-29T13:19:16;22.00;66.70
78886;DHT22;68269;52.514;5.722;2023-07-29T13:21:49;22.00;66.60
78886;DHT22;68269;52.514;5.722;2023-07-29T13:24:19;21.90;66.70
78886;DHT22;68269;52.514;5.722;2023-07-29T13:26:48;21.90;66.80
78886;DHT22;68269;52.514;5.722;2023-07-29T13:29:17;21.90;66.80
78886;DHT22;68269;52.514;5.722;2023-07-29T13:31:47;22.00;66.70
78886;DHT22;68269;52.514;5.722;2023-07-29T13:34:16;22.10;66.40
78886;DHT22;68269;52.514;5.722;2023-07-29T13:36:45;22.20;66.20
78886;DHT22;68269;52.514;5.722;2023-07-29T13:39:17;22.40;66.00
78886;DHT22;68269;52.514;5.722;2023-07-29T13:41:46;22.50;65.80
78886;DHT22;68269;52.514;5.722;2023-07-29T13:44:16;22.60;65.80
78886;DHT22;68269;52.514;5.722;2023-07-29T13:46:45;22.70;65.60
78886;DHT22;68269;52.514;5.722;2023-07-29T13:49:14;22.80;65.60
78886;DHT22;68269;52.514;5.722;2023-07-29T13:51:44;22.80;65.60
78886;DHT22;68269;52.514;5.722;2023-07-29T13:54:13;22.60;65.90
78886;DHT22;68269;52.514;5.722;2023-07-29T13:56:45;22.40;66.10
78886;DHT22;68269;52.514;5.722;2023-07-29T13:59:14;22.30;66.30
78886;DHT22;68269;52.514;5.722;2023-07-29T14:01:43;22.20;66.40
78886;DHT22;68269;52.514;5.722;2023-07-29T14:04:13;22.10;66.50
78886;DHT22;68269;52.514;5.722;2023-07-29T14:06:42;22.10;66.50
78886;DHT22;68269;52.514;5.722;2023-07-29T14:09:11;22.20;66.50
78886;DHT22;68269;52.514;5.722;2023-07-29T14:11:41;22.50;66.10
78886;DHT22;68269;52.514;5.722;2023-07-29T14:14:15;22.50;65.90
78886;DHT22;68269;52.514;5.722;2023-07-29T14:16:46;22.70;65.70
78886;DHT22;68269;52.514;5.722;2023-07-29T14:19:16;22.90;65.30
78886;DHT22;68269;52.514;5.722;2023-07-29T14:21:45;22.90;65.30
78886;DHT22;68269;52.514;5.722;2023-07-29T14:24:14;22.80;65.50
78886;DHT22;68269;52.514;5.722;2023-07-29T14:26:44;22.70;65.70
78886;DHT22;68269;52.514;5.722;2023-07-29T14:29:16;22.50;65.90
78886;DHT22;68269;52.514;5.722;2023-07-29T14:31:45;22.50;66.00
78886;DHT22;68269;52.514;5.722;2023-07-29T14:34:14;22.30;66.20
78886;DHT22;68269;52.514;5.722;2023-07-29T14:36:44;22.30;66.30
78886;DHT22;68269;52.514;5.722;2023-07-29T14:39:13;22.30;66.30
78886;DHT22;68269;52.514;5.722;2023-07-29T14:41:42;22.30;66.30
78886;DHT22;68269;52.514;5.722;2023-07-29T14:44:14;22.30;66.20
78886;DHT22;68269;52.514;5.722;2023-07-29T14:46:44;22.30;66.20
78886;DHT22;68269;52.514;5.722;2023-07-29T14:49:13;22.40;66.20
78886;DHT22;68269;52.514;5.722;2023-07-29T14:51:42;22.70;65.90
78886;DHT22;68269;52.514;5.722;2023-07-29T14:54:12;23.10;65.30
78886;DHT22;68269;52.514;5.722;2023-07-29T14:56:41;23.30;65.00
78886;DHT22;68269;52.514;5.722;2023-07-29T14:59:11;23.60;64.70
78886;DHT22;68269;52.514;5.722;2023-07-29T15:01:42;23.80;64.50
78886;DHT22;68269;52.514;5.722;2023-07-29T15:04:12;23.80;64.60
78886;DHT22;68269;52.514;5.722;2023-07-29T15:06:41;23.60;64.80
78886;DHT22;68269;52.514;5.722;2023-07-29T15:09:10;23.50;65.00
78886;DHT22;68269;52.514;5.722;2023-07-29T15:11:40;23.40;65.20
78886;DHT22;68269;52.514;5.722;2023-07-29T15:14:09;23.30;65.20
78886;DHT22;68269;52.514;5.722;2023-07-29T15:16:39;23.50;65.00
78886;DHT22;68269;52.514;5.722;2023-07-29T15:19:10;23.60;64.70
78886;DHT22;68269;52.514;5.722;2023-07-29T15:21:40;23.90;64.40
78886;DHT22;68269;52.514;5.722;2023-07-29T15:24:09;24.20;64.00
78886;DHT22;68269;52.514;5.722;2023-07-29T15:26:38;24.40;63.80
78886;DHT22;68269;52.514;5.722;2023-07-29T15:29:08;24.40;63.90
78886;DHT22;68269;52.514;5.722;2023-07-29T15:31:40;24.40;63.90
78886;DHT22;68269;52.514;5.722;2023-07-29T15:34:12;24.60;63.70
78886;DHT22;68269;52.514;5.722;2023-07-29T15:36:41;24.70;63.60
78886;DHT22;68269;52.514;5.722;2023-07-29T15:39:11;24.80;63.40
78886;DHT22;68269;52.514;5.722;2023-07-29T15:41:40;24.80;63.30
78886;DHT22;68269;52.514;5.722;2023-07-29T15:44:09;24.60;63.50
78886;DHT22;68269;52.514;5.722;2023-07-29T15:46:38;24.40;63.70
78886;DHT22;68269;52.514;5.722;2023-07-29T15:49:10;24.30;63.80
78886;DHT22;68269;52.514;5.722;2023-07-29T15:51:40;24.40;63.70
78886;DHT22;68269;52.514;5.722;2023-07-29T15:54:09;24.40;63.50
78886;DHT22;68269;52.514;5.722;2023-07-29T15:56:38;24.40;63.40
78886;DHT22;68269;52.514;5.722;2023-07-29T15:59:08;24.40;63.10
78886;DHT22;68269;52.514;5.722;2023-07-29T16:01:37;24.40;62.80